Terminal Aerodrome Forecast
Issued by NWS Indianapolis, IN

Home | Current Version | Previous Version | Text Only | Print | Product List | Glossary On
Versions: 1 2 3 4 5 6 7 8 9 10 11 12 13 14 15 16 17 18 19 20 21 22 23 24 25 26
000
FTUS43 KIND 261410 AAB
TAFIND
TAF AMD
KIND 261410Z 2614/2718 18008KT P6SM SCT100 BKN250
     FM270100 18006KT P6SM VCTS BKN050CB
     FM270600 21005KT P6SM BKN015
     FM271000 24004KT 5SM BR BKN008
     FM271300 33004KT P6SM BKN020
     FM271400 36004KT P6SM BKN035=

USA.gov is the U.S. government's official web portal to all federal, state and local government web resources and services.